createdAt,value
2023-02-12T00:00:37.685Z,13.63
2023-02-12T00:03:04.128Z,15.37
2023-02-12T00:05:30.729Z,19.33
2023-02-12T00:07:57.045Z,17.73
2023-02-12T00:10:23.624Z,16.33
2023-02-12T00:12:49.936Z,16.50
2023-02-12T00:15:16.281Z,18.73
2023-02-12T00:17:46.805Z,18.27
2023-02-12T00:20:13.172Z,18.93
2023-02-12T00:22:39.586Z,21.27
2023-02-12T00:25:06.056Z,18.70
2023-02-12T00:27:32.912Z,17.80
2023-02-12T00:29:59.258Z,16.13
2023-02-12T00:32:25.670Z,18.30
2023-02-12T00:34:52.031Z,18.70
2023-02-12T00:37:18.350Z,18.20
2023-02-12T00:39:44.840Z,16.43
2023-02-12T00:42:11.444Z,18.17
2023-02-12T00:44:37.728Z,19.30
2023-02-12T00:47:04.939Z,16.03
2023-02-12T00:49:34.702Z,21.40
2023-02-12T00:52:01.925Z,21.17
2023-02-12T00:54:29.044Z,18.93
2023-02-12T00:56:55.946Z,17.53
2023-02-12T00:59:23.313Z,19.23
2023-02-12T01:01:50.028Z,17.70
2023-02-12T01:04:16.519Z,21.23
2023-02-12T01:06:42.914Z,16.63
2023-02-12T01:09:09.397Z,18.50
2023-02-12T01:11:35.861Z,18.80
2023-02-12T01:14:02.225Z,20.30
2023-02-12T01:16:28.669Z,19.97
2023-02-12T01:18:56.192Z,21.30
2023-02-12T01:21:30.657Z,18.90
2023-02-12T01:23:57.352Z,20.03
2023-02-12T01:26:23.981Z,18.90
2023-02-12T01:28:51.703Z,23.37
2023-02-12T01:31:19.484Z,18.53
2023-02-12T01:33:50.257Z,19.73
2023-02-12T01:36:16.584Z,21.13
2023-02-12T01:38:43.304Z,19.30
2023-02-12T01:41:11.436Z,18.67
2023-02-12T01:43:38.021Z,21.90
2023-02-12T01:46:04.997Z,24.07
2023-02-12T01:48:33.787Z,18.30
2023-02-12T01:51:02.418Z,18.27
2023-02-12T01:53:31.844Z,18.40
2023-02-12T01:55:59.321Z,19.53
2023-02-12T01:58:26.404Z,19.43
2023-02-12T02:00:53.316Z,19.70
2023-02-12T02:03:19.707Z,17.80
2023-02-12T02:05:59.416Z,20.40
2023-02-12T02:08:25.804Z,18.57
2023-02-12T02:10:52.106Z,19.33
2023-02-12T02:13:36.946Z,22.33
2023-02-12T02:16:10.777Z,19.73
2023-02-12T02:18:42.980Z,18.13
2023-02-12T02:21:28.101Z,19.33
2023-02-12T02:24:13.270Z,22.27
2023-02-12T02:27:04.709Z,18.90
2023-02-12T02:29:46.609Z,17.43
2023-02-12T02:32:18.194Z,18.37
2023-02-12T02:34:55.351Z,24.40
2023-02-12T02:37:27.849Z,25.30
2023-02-12T02:39:57.828Z,18.57
2023-02-12T02:42:32.857Z,23.57
2023-02-12T02:45:08.113Z,21.47
2023-02-12T02:47:38.310Z,23.17
2023-02-12T02:50:12.745Z,27.70
2023-02-12T02:52:45.594Z,19.07
2023-02-12T02:55:13.748Z,15.93
2023-02-12T02:57:48.995Z,18.23
2023-02-12T03:00:20.309Z,19.10
2023-02-12T03:02:50.079Z,17.83
2023-02-12T03:05:23.675Z,20.93
2023-02-12T03:07:52.577Z,17.67
2023-02-12T03:10:27.458Z,20.60
2023-02-12T03:12:59.934Z,16.83
2023-02-12T03:15:26.214Z,18.10
2023-02-12T03:17:52.663Z,15.70
2023-02-12T03:20:28.868Z,18.53
2023-02-12T03:23:06.235Z,14.80
2023-02-12T03:25:38.337Z,14.30
2023-02-12T03:28:09.764Z,16.53
2023-02-12T03:30:44.464Z,17.97
2023-02-12T03:33:30.300Z,11.33
2023-02-12T03:36:03.346Z,12.17
2023-02-12T03:38:34.013Z,11.27
2023-02-12T03:41:04.666Z,10.50
2023-02-12T03:43:38.624Z,13.50
2023-02-12T03:46:22.594Z,13.87
2023-02-12T03:49:03.638Z,6.83
2023-02-12T03:51:33.659Z,12.87
2023-02-12T03:54:01.007Z,14.77
2023-02-12T03:56:29.940Z,10.97
2023-02-12T03:58:56.332Z,7.70
2023-02-12T04:01:23.050Z,8.03
2023-02-12T04:03:49.550Z,6.47
2023-02-12T04:06:20.646Z,7.70
2023-02-12T04:08:47.179Z,12.67
2023-02-12T04:11:13.540Z,9.93
2023-02-12T04:13:43.110Z,7.20
2023-02-12T04:16:21.578Z,7.80
2023-02-12T04:18:51.612Z,5.20
2023-02-12T04:21:27.391Z,6.17
2023-02-12T04:23:53.781Z,9.27
2023-02-12T04:26:23.211Z,9.30
2023-02-12T04:28:59.517Z,4.50
2023-02-12T04:31:39.496Z,5.23
2023-02-12T04:34:17.502Z,9.73
2023-02-12T04:36:54.057Z,5.57
2023-02-12T04:39:23.088Z,4.13
2023-02-12T04:41:49.554Z,6.17
2023-02-12T04:44:15.895Z,7.77
2023-02-12T04:46:42.255Z,2.90
2023-02-12T04:49:13.453Z,6.67
2023-02-12T04:51:39.840Z,6.80
2023-02-12T04:54:06.162Z,5.73
2023-02-12T04:56:32.518Z,6.30
2023-02-12T04:58:58.890Z,5.97
2023-02-12T05:01:25.563Z,5.43
2023-02-12T05:03:52.458Z,6.30
2023-02-12T05:06:19.174Z,5.90
2023-02-12T05:08:45.453Z,7.33
2023-02-12T05:11:11.787Z,8.63
2023-02-12T05:13:38.231Z,2.23
2023-02-12T05:16:08.126Z,2.63
2023-02-12T05:18:35.253Z,2.97
2023-02-12T05:21:02.639Z,3.17
2023-02-12T05:23:29.961Z,6.57
2023-02-12T05:26:00.218Z,3.83
2023-02-12T05:28:26.994Z,7.30
2023-02-12T05:30:53.615Z,4.80
2023-02-12T05:33:19.983Z,4.00
2023-02-12T05:35:46.438Z,1.90
2023-02-12T05:38:12.760Z,5.60
2023-02-12T05:40:40.996Z,2.07
2023-02-12T05:43:07.313Z,4.33
2023-02-12T05:45:33.622Z,4.80
2023-02-12T05:47:59.984Z,2.40
2023-02-12T05:50:26.280Z,3.17
2023-02-12T05:52:52.576Z,6.43
2023-02-12T05:55:18.977Z,3.63
2023-02-12T05:57:45.341Z,3.93
2023-02-12T06:00:12.007Z,1.73
2023-02-12T06:02:38.403Z,4.47
2023-02-12T06:05:04.961Z,4.37
2023-02-12T06:07:31.296Z,3.10
2023-02-12T06:09:57.579Z,2.80
2023-02-12T06:12:23.877Z,3.10
2023-02-12T06:14:50.219Z,5.20
2023-02-12T06:17:16.490Z,4.63
2023-02-12T06:19:42.803Z,3.47
2023-02-12T06:22:09.131Z,5.63
2023-02-12T06:24:37.116Z,3.00
2023-02-12T06:27:03.680Z,4.93
2023-02-12T06:29:30.307Z,3.07
2023-02-12T06:31:56.672Z,3.40
2023-02-12T06:34:23.130Z,3.20
2023-02-12T06:36:49.600Z,4.23
2023-02-12T06:39:16.601Z,3.23
2023-02-12T06:41:43.905Z,2.70
2023-02-12T06:44:11.247Z,3.17
2023-02-12T06:46:37.830Z,5.40
2023-02-12T06:49:04.221Z,5.97
2023-02-12T06:51:31.392Z,2.90
2023-02-12T06:53:58.821Z,4.27
2023-02-12T06:56:26.009Z,4.83
2023-02-12T06:58:53.717Z,8.47
2023-02-12T07:01:21.677Z,4.40
2023-02-12T07:03:49.373Z,3.80
2023-02-12T07:06:15.718Z,2.53
2023-02-12T07:08:42.275Z,3.57
2023-02-12T07:11:08.629Z,2.80
2023-02-12T07:13:35.489Z,3.53
2023-02-12T07:16:05.753Z,2.23
2023-02-12T07:18:33.057Z,3.70
2023-02-12T07:20:59.376Z,2.37
2023-02-12T07:23:25.686Z,3.07
2023-02-12T07:25:59.045Z,2.93
2023-02-12T07:28:26.043Z,2.93
2023-02-12T07:30:52.782Z,4.33
2023-02-12T07:33:20.581Z,2.97
2023-02-12T07:35:46.968Z,2.50
2023-02-12T07:38:13.283Z,6.10
2023-02-12T07:40:39.562Z,2.43
2023-02-12T07:43:06.076Z,6.17
2023-02-12T07:45:32.439Z,3.67
2023-02-12T07:47:58.773Z,3.93
2023-02-12T07:50:25.057Z,2.53
2023-02-12T07:52:51.451Z,6.93
2023-02-12T07:55:17.837Z,3.57
2023-02-12T07:57:44.177Z,2.27
2023-02-12T08:00:10.750Z,6.10
2023-02-12T08:02:37.177Z,5.77
2023-02-12T08:05:03.554Z,3.53
2023-02-12T08:07:29.885Z,4.77
2023-02-12T08:09:56.306Z,4.63
2023-02-12T08:12:23.786Z,7.10
2023-02-12T08:14:50.204Z,6.97
2023-02-12T08:17:16.526Z,5.20
2023-02-12T08:19:42.964Z,4.23
2023-02-12T08:22:09.342Z,4.97
2023-02-12T08:24:35.625Z,3.73
2023-02-12T08:27:02.342Z,5.23
2023-02-12T08:29:29.827Z,4.63
2023-02-12T08:31:58.008Z,5.70
2023-02-12T08:34:25.758Z,6.50
2023-02-12T08:36:54.038Z,5.83
2023-02-12T08:39:21.381Z,3.90
2023-02-12T08:41:47.696Z,8.60
2023-02-12T08:44:14.701Z,6.50
2023-02-12T08:46:44.222Z,4.03
2023-02-12T08:49:14.590Z,3.40
2023-02-12T08:51:42.334Z,6.57
2023-02-12T08:54:10.854Z,5.90
2023-02-12T08:56:37.447Z,3.07
2023-02-12T08:59:05.526Z,4.57
2023-02-12T09:01:38.534Z,3.80
2023-02-12T09:04:05.329Z,7.30
2023-02-12T09:06:32.569Z,6.30
2023-02-12T09:08:59.030Z,5.07
2023-02-12T09:11:32.091Z,5.43
2023-02-12T09:13:59.839Z,5.30
2023-02-12T09:16:27.711Z,3.67
2023-02-12T09:18:54.981Z,4.00
2023-02-12T09:21:21.655Z,11.47
2023-02-12T09:23:48.457Z,4.10
2023-02-12T09:26:16.338Z,6.17
2023-02-12T09:28:42.947Z,4.70
2023-02-12T09:31:10.780Z,5.87
2023-02-12T09:33:37.378Z,3.73
2023-02-12T09:36:04.942Z,6.00
2023-02-12T09:38:31.509Z,3.77
2023-02-12T09:41:12.068Z,8.17
2023-02-12T09:43:48.605Z,9.10
2023-02-12T09:46:21.036Z,9.37
2023-02-12T09:49:06.319Z,7.83
2023-02-12T09:51:32.837Z,5.27
2023-02-12T09:54:03.981Z,6.67
2023-02-12T09:56:30.551Z,6.83
2023-02-12T09:58:59.053Z,6.33
2023-02-12T10:01:27.331Z,5.23
2023-02-12T10:03:53.987Z,5.60
2023-02-12T10:06:22.357Z,6.03
2023-02-12T10:09:00.454Z,7.17
2023-02-12T10:11:29.817Z,12.40
2023-02-12T10:14:14.644Z,10.03
2023-02-12T10:16:40.998Z,8.23
2023-02-12T10:19:19.553Z,8.87
2023-02-12T10:22:04.796Z,9.33
2023-02-12T10:24:36.481Z,6.37
2023-02-12T10:27:05.183Z,8.60
2023-02-12T10:29:38.146Z,10.70
2023-02-12T10:32:04.456Z,5.63
2023-02-12T10:34:33.388Z,7.73
2023-02-12T10:37:25.731Z,5.70
2023-02-12T10:39:57.727Z,8.53
2023-02-12T10:42:38.253Z,9.37
2023-02-12T10:45:04.812Z,8.00
2023-02-12T10:47:31.276Z,7.40
2023-02-12T10:49:59.095Z,6.33
2023-02-12T10:52:28.530Z,10.30
2023-02-12T10:54:54.939Z,8.40
2023-02-12T10:57:29.532Z,7.20
2023-02-12T10:59:59.821Z,9.03
2023-02-12T11:02:26.107Z,8.83
2023-02-12T11:04:53.808Z,8.83
2023-02-12T11:07:20.686Z,8.60
2023-02-12T11:09:48.166Z,8.80
2023-02-12T11:12:37.181Z,9.20
2023-02-12T11:15:06.325Z,8.93
2023-02-12T11:17:40.111Z,9.20
2023-02-12T11:20:09.695Z,9.17
2023-02-12T11:22:36.532Z,8.17
2023-02-12T11:25:09.038Z,9.77
2023-02-12T11:27:35.355Z,9.03
2023-02-12T11:30:21.302Z,12.17
2023-02-12T11:32:49.393Z,9.30
2023-02-12T11:35:25.839Z,12.67
2023-02-12T11:37:54.784Z,10.03
2023-02-12T11:40:21.178Z,10.30
2023-02-12T11:43:07.856Z,15.10
2023-02-12T11:45:53.025Z,9.70
2023-02-12T11:48:19.338Z,10.13
2023-02-12T11:50:50.660Z,9.00
2023-02-12T11:53:21.888Z,11.27
2023-02-12T11:55:55.794Z,8.83
2023-02-12T11:58:23.830Z,11.63
2023-02-12T12:00:54.496Z,11.17
2023-02-12T12:03:20.812Z,11.70
2023-02-12T12:05:48.611Z,10.77
2023-02-12T12:08:26.807Z,11.40
2023-02-12T12:11:12.778Z,13.33
2023-02-12T12:13:43.107Z,11.50
2023-02-12T12:16:31.861Z,14.30
2023-02-12T12:19:20.811Z,12.27
2023-02-12T12:21:55.605Z,14.60
2023-02-12T12:24:29.168Z,10.17
2023-02-12T12:27:00.789Z,11.80
2023-02-12T12:29:30.068Z,12.23
2023-02-12T12:31:59.675Z,13.33
2023-02-12T12:34:27.711Z,11.07
2023-02-12T12:37:06.290Z,14.63
2023-02-12T12:39:35.333Z,13.00
2023-02-12T12:42:20.670Z,13.93
2023-02-12T12:45:11.042Z,11.57
2023-02-12T12:47:58.559Z,12.97
2023-02-12T12:50:45.241Z,9.30
2023-02-12T12:53:17.660Z,10.93
2023-02-12T12:55:43.982Z,15.53
2023-02-12T12:58:24.482Z,10.73
2023-02-12T13:00:50.828Z,12.83
2023-02-12T13:03:17.108Z,13.87
2023-02-12T13:06:13.136Z,11.47
2023-02-12T13:09:01.035Z,12.97
2023-02-12T13:11:36.418Z,12.07
2023-02-12T13:14:14.930Z,12.23
2023-02-12T13:16:54.190Z,13.07
2023-02-12T13:19:20.546Z,13.97
2023-02-12T13:21:46.836Z,11.07
2023-02-12T13:24:15.924Z,15.47
2023-02-12T13:27:01.397Z,11.47
2023-02-12T13:29:40.212Z,13.33
2023-02-12T13:32:25.219Z,12.93
2023-02-12T13:34:53.485Z,11.57
2023-02-12T13:37:35.286Z,13.97
2023-02-12T13:40:03.556Z,11.50
2023-02-12T13:42:33.039Z,11.17
2023-02-12T13:45:08.549Z,9.80
2023-02-12T13:47:40.824Z,14.47
2023-02-12T13:50:20.654Z,11.80
2023-02-12T13:52:46.939Z,10.43
2023-02-12T13:55:19.145Z,15.93
2023-02-12T13:57:45.442Z,10.87
2023-02-12T14:00:33.101Z,11.53
2023-02-12T14:03:08.382Z,13.10
2023-02-12T14:05:35.289Z,12.77
2023-02-12T14:08:05.243Z,13.07
2023-02-12T14:10:34.578Z,11.20
2023-02-12T14:13:24.226Z,12.00
2023-02-12T14:15:52.263Z,12.63
2023-02-12T14:18:21.951Z,10.67
2023-02-12T14:20:48.424Z,12.30
2023-02-12T14:23:20.821Z,11.13
2023-02-12T14:25:55.313Z,12.30
2023-02-12T14:28:31.479Z,14.60
2023-02-12T14:31:16.850Z,19.20
2023-02-12T14:33:43.484Z,12.77
2023-02-12T14:36:33.106Z,11.03
2023-02-12T14:39:05.003Z,11.20
2023-02-12T14:41:39.015Z,12.03
2023-02-12T14:44:30.522Z,12.30
2023-02-12T14:46:58.856Z,14.40
2023-02-12T14:49:26.270Z,10.53
2023-02-12T14:51:58.650Z,10.27
2023-02-12T14:54:31.188Z,15.10
2023-02-12T14:57:01.508Z,12.50
2023-02-12T14:59:29.327Z,11.53
2023-02-12T15:01:58.884Z,10.53
2023-02-12T15:04:30.325Z,14.33
2023-02-12T15:07:05.121Z,18.83
2023-02-12T15:09:44.886Z,13.43
2023-02-12T15:12:12.749Z,13.43
2023-02-12T15:14:45.737Z,9.30
2023-02-12T15:17:15.071Z,13.90
2023-02-12T15:19:47.320Z,11.13
2023-02-12T15:22:21.989Z,9.67
2023-02-12T15:24:48.473Z,11.03
2023-02-12T15:27:15.884Z,11.70
2023-02-12T15:29:43.864Z,13.30
2023-02-12T15:32:15.946Z,10.67
2023-02-12T15:34:42.937Z,13.13
2023-02-12T15:37:09.731Z,15.17
2023-02-12T15:39:44.012Z,14.80
2023-02-12T15:42:23.489Z,10.47
2023-02-12T15:44:49.925Z,9.57
2023-02-12T15:47:17.489Z,13.53
2023-02-12T15:49:43.872Z,10.53
2023-02-12T15:52:16.500Z,12.50
2023-02-12T15:54:44.008Z,15.47
2023-02-12T15:57:11.504Z,12.43
2023-02-12T15:59:38.205Z,13.00
2023-02-12T16:02:15.465Z,17.43
2023-02-12T16:04:41.965Z,13.70
2023-02-12T16:07:10.243Z,11.47
2023-02-12T16:09:36.670Z,18.57
2023-02-12T16:12:04.517Z,13.23
2023-02-12T16:14:43.507Z,16.17
2023-02-12T16:17:21.194Z,16.97
2023-02-12T16:19:58.045Z,13.17
2023-02-12T16:22:30.774Z,22.03
2023-02-12T16:24:58.270Z,18.87
2023-02-12T16:27:27.310Z,20.47
2023-02-12T16:29:55.476Z,20.63
2023-02-12T16:32:27.624Z,20.50
2023-02-12T16:35:14.338Z,19.60
2023-02-12T16:37:42.546Z,19.87
2023-02-12T16:40:17.617Z,21.70
2023-02-12T16:42:46.984Z,18.10
2023-02-12T16:45:28.822Z,19.87
2023-02-12T16:48:03.961Z,17.83
2023-02-12T16:50:31.058Z,28.03
2023-02-12T16:53:04.417Z,16.67
2023-02-12T16:55:30.744Z,24.03
2023-02-12T16:57:57.133Z,21.00
2023-02-12T17:00:24.057Z,18.77
2023-02-12T17:02:50.635Z,22.43
2023-02-12T17:05:19.170Z,20.20
2023-02-12T17:07:45.512Z,21.77
2023-02-12T17:10:15.621Z,25.13
2023-02-12T17:12:48.658Z,24.97
2023-02-12T17:15:22.995Z,21.63
2023-02-12T17:17:49.394Z,23.27
2023-02-12T17:20:17.396Z,23.20
2023-02-12T17:22:48.017Z,25.13
2023-02-12T17:25:14.311Z,27.57
2023-02-12T17:27:40.611Z,26.37
2023-02-12T17:30:07.253Z,25.20
2023-02-12T17:32:33.549Z,30.03
2023-02-12T17:34:59.962Z,26.60
2023-02-12T17:37:26.336Z,25.50
2023-02-12T17:39:52.757Z,23.90
2023-02-12T17:42:19.064Z,25.57
2023-02-12T17:44:45.361Z,23.50
2023-02-12T17:47:11.644Z,23.77
2023-02-12T17:49:39.873Z,25.67
2023-02-12T17:52:07.558Z,21.70
2023-02-12T17:54:36.122Z,24.40
2023-02-12T17:57:02.630Z,27.10
2023-02-12T17:59:29.193Z,26.30
2023-02-12T18:01:55.586Z,25.93
2023-02-12T18:04:21.958Z,26.90
2023-02-12T18:06:48.286Z,28.53
2023-02-12T18:09:14.727Z,29.23
2023-02-12T18:11:42.397Z,30.17
2023-02-12T18:14:10.388Z,25.90
2023-02-12T18:16:36.822Z,28.83
2023-02-12T18:19:04.508Z,35.43
2023-02-12T18:21:30.942Z,25.53
2023-02-12T18:23:57.380Z,32.73
2023-02-12T18:26:23.750Z,27.47
2023-02-12T18:28:50.108Z,29.37
2023-02-12T18:31:18.328Z,24.07
2023-02-12T18:33:45.081Z,24.77
2023-02-12T18:36:13.848Z,30.93
2023-02-12T18:38:41.224Z,30.73
2023-02-12T18:41:13.024Z,31.07
2023-02-12T18:43:39.661Z,33.20
2023-02-12T18:46:10.497Z,33.07
2023-02-12T18:48:37.302Z,28.93
2023-02-12T18:51:04.298Z,29.50
2023-02-12T18:53:30.820Z,29.87
2023-02-12T18:55:57.511Z,26.07
2023-02-12T18:58:24.085Z,28.77
2023-02-12T19:00:50.639Z,33.27
2023-02-12T19:03:17.083Z,30.87
2023-02-12T19:05:43.501Z,35.40
2023-02-12T19:08:10.006Z,32.60
2023-02-12T19:10:38.527Z,43.07
2023-02-12T19:13:04.821Z,30.30
2023-02-12T19:15:31.147Z,32.37
2023-02-12T19:17:57.437Z,31.60
2023-02-12T19:20:23.749Z,31.80
2023-02-12T19:22:50.174Z,32.33
2023-02-12T19:25:16.532Z,33.43
2023-02-12T19:27:42.901Z,30.53
2023-02-12T19:30:09.449Z,27.23
2023-02-12T19:32:36.589Z,28.13
2023-02-12T19:35:02.887Z,34.70
2023-02-12T19:37:29.218Z,30.73
2023-02-12T19:39:55.514Z,36.53
2023-02-12T19:42:21.836Z,37.27
2023-02-12T19:44:48.197Z,28.97
2023-02-12T19:47:14.851Z,30.27
2023-02-12T19:49:41.424Z,29.97
2023-02-12T19:52:08.141Z,34.00
2023-02-12T19:54:34.642Z,34.60
2023-02-12T19:57:01.385Z,33.77
2023-02-12T19:59:27.699Z,32.23
2023-02-12T20:01:54.220Z,31.20
2023-02-12T20:04:21.562Z,35.00
2023-02-12T20:06:50.850Z,34.30
2023-02-12T20:09:17.408Z,30.33
2023-02-12T20:11:43.715Z,33.70
2023-02-12T20:14:12.418Z,34.63
2023-02-12T20:16:41.572Z,29.03
2023-02-12T20:19:09.453Z,33.40
2023-02-12T20:21:35.965Z,31.77
2023-02-12T20:24:02.338Z,30.63
2023-02-12T20:26:29.745Z,34.10
2023-02-12T20:28:56.118Z,34.50
2023-02-12T20:31:24.506Z,33.00
2023-02-12T20:34:11.381Z,34.27
2023-02-12T20:36:39.278Z,30.20
2023-02-12T20:39:06.521Z,28.37
2023-02-12T20:41:34.986Z,30.43
2023-02-12T20:44:01.377Z,30.40
2023-02-12T20:46:27.969Z,32.13
2023-02-12T20:48:55.025Z,32.23
2023-02-12T20:51:23.108Z,33.10
2023-02-12T20:53:49.890Z,36.87
2023-02-12T20:56:20.365Z,30.50
2023-02-12T20:58:47.128Z,31.57
2023-02-12T21:01:14.869Z,30.77
2023-02-12T21:03:42.425Z,33.67
2023-02-12T21:06:09.809Z,34.37
2023-02-12T21:08:36.872Z,32.87
2023-02-12T21:11:05.023Z,32.83
2023-02-12T21:13:31.390Z,31.50
2023-02-12T21:16:05.238Z,30.03
2023-02-12T21:18:31.722Z,32.97
2023-02-12T21:21:08.518Z,31.77
2023-02-12T21:23:35.069Z,30.03
2023-02-12T21:26:12.367Z,33.80
2023-02-12T21:28:38.807Z,32.93
2023-02-12T21:31:09.483Z,29.23
2023-02-12T21:33:36.174Z,30.03
2023-02-12T21:36:13.379Z,32.63
2023-02-12T21:38:41.049Z,34.53
2023-02-12T21:41:10.475Z,32.50
2023-02-12T21:43:37.314Z,28.00
2023-02-12T21:46:03.804Z,31.27
2023-02-12T21:48:30.598Z,30.97
2023-02-12T21:50:57.207Z,32.67
2023-02-12T21:53:23.784Z,31.43
2023-02-12T21:55:50.137Z,32.77
2023-02-12T21:58:17.474Z,35.23
2023-02-12T22:00:43.836Z,32.53
2023-02-12T22:03:10.187Z,34.40
2023-02-12T22:05:36.576Z,33.97
2023-02-12T22:08:02.866Z,34.00
2023-02-12T22:10:29.233Z,36.00
2023-02-12T22:12:55.552Z,37.23
2023-02-12T22:15:22.219Z,37.67
2023-02-12T22:17:48.736Z,34.50
2023-02-12T22:20:15.046Z,33.63
2023-02-12T22:22:41.423Z,28.57
2023-02-12T22:25:07.839Z,33.17
2023-02-12T22:27:34.466Z,34.40
2023-02-12T22:30:01.183Z,31.43
2023-02-12T22:32:27.888Z,36.67
2023-02-12T22:34:54.268Z,34.23
2023-02-12T22:37:20.598Z,32.63
2023-02-12T22:39:46.932Z,33.67
2023-02-12T22:42:13.231Z,35.50
2023-02-12T22:44:39.658Z,30.93
2023-02-12T22:47:05.935Z,33.60
2023-02-12T22:49:32.229Z,34.10
2023-02-12T22:51:58.515Z,36.10
2023-02-12T22:54:24.825Z,33.13
2023-02-12T22:56:51.630Z,34.97
2023-02-12T22:59:18.020Z,33.10
2023-02-12T23:01:44.582Z,38.83
2023-02-12T23:04:13.812Z,36.80
2023-02-12T23:06:40.126Z,35.20
2023-02-12T23:09:06.440Z,34.03
2023-02-12T23:11:33.256Z,32.97
2023-02-12T23:14:00.110Z,37.67
2023-02-12T23:16:26.549Z,30.23
2023-02-12T23:18:56.481Z,34.30
2023-02-12T23:21:23.250Z,37.60
2023-02-12T23:23:49.554Z,36.80
2023-02-12T23:26:16.032Z,32.77
2023-02-12T23:28:42.441Z,32.57
2023-02-12T23:31:09.023Z,34.10
2023-02-12T23:33:35.393Z,32.93
2023-02-12T23:36:01.856Z,33.77
2023-02-12T23:38:28.174Z,32.43
2023-02-12T23:40:54.542Z,32.47
2023-02-12T23:43:20.881Z,31.63
2023-02-12T23:45:47.352Z,31.00
2023-02-12T23:48:13.715Z,30.70
2023-02-12T23:50:40.245Z,35.17
2023-02-12T23:53:06.813Z,33.17
2023-02-12T23:55:35.887Z,32.77
2023-02-12T23:58:02.716Z,37.23
